Ardenvoir, WA (98811)

4:30 AM PST on February 27, 2015 (GMT -0800)
HADS ENTIAT RIVER NEAR ARDENVOIR 6NW WA US USGS | Change Station
CLOSE
Current Station
Personal Weather Station
Location: Ardenvoir, WA
Elevation: 1750 ft
Nearby Weather Stations

Elev 1750 ft 47.82 °N, 120.42 °W | Updated 1 hour ago

Rain
Rain
38 °F
Feels Like 38 °F
N
Wind Variable Wind from North
Gusts 0.0 mph

Today
High -- | Low -- °F
--% Chance of Precip.
Yesterday
High -- | Low -- °F
Precip. -- in
6:46 AM 5:43 PM
Waxing Gibbous, 68% visible
Pressure 29.83 in
Visibility 8.0 miles
Clouds Scattered Clouds 1900 ft
Overcast 2800 ft
Windchill 38 °F
Dew Point Not available.
Humidity Not available.
Rainfall -999.00 in
Snow Depth Not available.
UV 0 out of 12
Pollen 4.90 out of 12
Air Quality Not available.
Flu Activity Not available.
METAR KEAT 271155Z AUTO 00000KT 8SM -RA SCT019 OVC028 05/03 A2982 RMK AO2 SLP101 P0004 60005 70005 T00500028 10078 20050 58006

More Conditions Fewer Conditions

Pressure 29.83 in
Visibility 8.0 miles
Clouds Scattered Clouds 1900 ft
Overcast 2800 ft
Windchill 38 °F
Dew Point Not available.
Humidity Not available.
Rainfall -999.00 in
Snow Depth Not available.
UV 0 out of 12
Pollen 4.90 out of 12
Air Quality Not available.
Flu Activity Not available.
METAR KEAT 271155Z AUTO 00000KT 8SM -RA SCT019 OVC028 05/03 A2982 RMK AO2 SLP101 P0004 60005 70005 T00500028 10078 20050 58006

More Conditions Fewer Conditions

10-Day Weather Forecast

Almanac

Astronomy

Feb. 27, 2015 Rise Set
Actual Time
Civil Twilight
Nautical Twilight
Astronomical Twilight
Moon
Length of Visible Light
Length of Day
Tomorrow will be .
, % of the Moon is Illuminated

Today's Extremes

State Highs State Lows

Community

WunderPhotos

Upload Photos

1,800,664 photos uploaded!

WunderBlogs® & News

Nearby

Air Quality

  Air Quality AQ Index Pollutant
Not available.

Snow Depth

Station Depth Elevation

Earthquake Activity

City Distance Mag. Time & Date
Minimum magnitude displayed is 2.5.

Coastal Water Temperatures

Place Temperature

Nearby Weather Stations